createdAt,value
2022-11-15T00:00:20.385Z,98752.00
2022-11-15T00:02:13.514Z,98744.00
2022-11-15T00:04:07.014Z,98736.00
2022-11-15T00:06:05.169Z,98735.00
2022-11-15T00:07:59.280Z,98734.00
2022-11-15T00:09:52.548Z,98727.00
2022-11-15T00:11:45.926Z,98728.00
2022-11-15T00:13:40.498Z,98721.00
2022-11-15T00:15:33.500Z,98721.00
2022-11-15T00:17:26.568Z,98724.00
2022-11-15T00:19:19.652Z,98715.00
2022-11-15T00:21:15.605Z,98720.00
2022-11-15T00:23:08.970Z,98720.00
2022-11-15T00:25:02.128Z,98716.00
2022-11-15T00:26:55.196Z,98715.00
2022-11-15T00:28:49.903Z,98719.00
2022-11-15T00:30:42.948Z,98723.00
2022-11-15T00:32:36.048Z,98722.00
2022-11-15T00:34:29.269Z,98722.00
2022-11-15T00:36:22.326Z,98719.00
2022-11-15T00:38:15.536Z,98721.00
2022-11-15T00:40:10.602Z,98709.00
2022-11-15T00:42:03.732Z,98706.00
2022-11-15T00:43:58.569Z,98709.00
2022-11-15T00:45:51.971Z,98714.00
2022-11-15T00:47:47.085Z,98710.00
2022-11-15T00:49:40.251Z,98704.00
2022-11-15T00:51:33.313Z,98713.00
2022-11-15T00:53:26.652Z,98710.00
2022-11-15T00:55:21.228Z,98700.00
2022-11-15T00:57:14.418Z,98692.00
2022-11-15T00:59:08.830Z,98701.00
2022-11-15T01:01:09.426Z,98707.00
2022-11-15T01:03:03.674Z,98708.00
2022-11-15T01:04:56.776Z,98699.00
2022-11-15T01:06:50.039Z,98695.00
2022-11-15T01:08:43.749Z,98699.00
2022-11-15T01:10:38.665Z,98698.00
2022-11-15T01:12:32.130Z,98694.00
2022-11-15T01:14:26.773Z,98694.00
2022-11-15T01:16:20.420Z,98701.00
2022-11-15T01:18:13.821Z,98698.00
2022-11-15T01:20:08.640Z,98697.00
2022-11-15T01:22:01.733Z,98699.00
2022-11-15T01:23:56.026Z,98689.00
2022-11-15T01:25:49.124Z,98694.00
2022-11-15T01:27:42.208Z,98695.00
2022-11-15T01:29:36.887Z,98703.00
2022-11-15T01:31:31.004Z,98695.00
2022-11-15T01:33:24.150Z,98698.00
2022-11-15T01:35:17.647Z,98688.00
2022-11-15T01:37:10.789Z,98679.00
2022-11-15T01:39:04.145Z,98686.00
2022-11-15T01:40:57.257Z,98680.00
2022-11-15T01:42:50.338Z,98688.00
2022-11-15T01:44:49.426Z,98688.00
2022-11-15T01:46:48.526Z,98681.00
2022-11-15T01:48:42.272Z,98683.00
2022-11-15T01:50:35.579Z,98683.00
2022-11-15T01:52:33.673Z,98677.00
2022-11-15T01:54:27.906Z,98680.00
2022-11-15T01:56:25.579Z,98680.00
2022-11-15T01:58:18.793Z,98680.00
2022-11-15T02:00:18.140Z,98672.00
2022-11-15T02:02:11.408Z,98681.00
2022-11-15T02:04:13.212Z,98671.00
2022-11-15T02:06:07.835Z,98672.00
2022-11-15T02:08:02.996Z,98668.00
2022-11-15T02:09:57.118Z,98665.00
2022-11-15T02:11:52.803Z,98675.00
2022-11-15T02:13:46.948Z,98676.00
2022-11-15T02:16:03.366Z,98663.00
2022-11-15T02:18:13.333Z,98665.00
2022-11-15T02:20:41.348Z,98667.00
2022-11-15T02:22:53.597Z,98657.00
2022-11-15T02:25:19.595Z,98656.00
2022-11-15T02:28:04.665Z,98662.00
2022-11-15T02:30:36.765Z,98661.00
2022-11-15T02:32:38.735Z,98661.00
2022-11-15T02:34:45.462Z,98661.00
2022-11-15T02:36:48.305Z,98660.00
2022-11-15T02:38:53.577Z,98664.00
2022-11-15T02:40:55.812Z,98656.00
2022-11-15T02:43:15.419Z,98660.00
2022-11-15T02:45:13.556Z,98652.00
2022-11-15T02:47:16.366Z,98653.00
2022-11-15T02:49:10.058Z,98656.00
2022-11-15T02:51:04.287Z,98646.00
2022-11-15T02:52:58.270Z,98642.00
2022-11-15T02:54:57.258Z,98636.00
2022-11-15T02:56:54.913Z,98639.00
2022-11-15T02:59:09.820Z,98645.00
2022-11-15T03:01:13.025Z,98634.00
2022-11-15T03:03:41.653Z,98633.00
2022-11-15T03:05:44.149Z,98636.00
2022-11-15T03:07:45.816Z,98638.00
2022-11-15T03:09:52.229Z,98633.00
2022-11-15T03:11:53.513Z,98632.00
2022-11-15T03:13:58.778Z,98630.00
2022-11-15T03:16:04.755Z,98629.00
2022-11-15T03:18:02.599Z,98634.00
2022-11-15T03:20:01.420Z,98635.00
2022-11-15T03:21:56.997Z,98638.00
2022-11-15T03:23:54.161Z,98636.00
2022-11-15T03:25:53.660Z,98642.00
2022-11-15T03:27:53.337Z,98638.00
2022-11-15T03:29:52.491Z,98638.00
2022-11-15T03:31:53.223Z,98643.00
2022-11-15T03:33:46.400Z,98640.00
2022-11-15T03:35:46.392Z,98643.00
2022-11-15T03:37:49.620Z,98631.00
2022-11-15T03:39:43.981Z,98633.00
2022-11-15T03:41:45.896Z,98626.00
2022-11-15T03:43:49.863Z,98626.00
2022-11-15T03:45:50.773Z,98635.00
2022-11-15T03:47:53.750Z,98631.00
2022-11-15T03:49:53.098Z,98632.00
2022-11-15T03:51:48.061Z,98627.00
2022-11-15T03:53:42.949Z,98631.00
2022-11-15T03:55:36.321Z,98639.00
2022-11-15T03:57:29.431Z,98632.00
2022-11-15T03:59:22.602Z,98633.00
2022-11-15T04:01:15.759Z,98630.00
2022-11-15T04:03:09.324Z,98620.00
2022-11-15T04:05:02.497Z,98619.00
2022-11-15T04:06:58.276Z,98620.00
2022-11-15T04:08:51.529Z,98616.00
2022-11-15T04:10:44.790Z,98613.00
2022-11-15T04:12:43.342Z,98603.00
2022-11-15T04:14:36.432Z,98607.00
2022-11-15T04:16:30.886Z,98597.00
2022-11-15T04:18:25.444Z,98607.00
2022-11-15T04:20:39.880Z,98605.00
2022-11-15T04:22:52.123Z,98607.00
2022-11-15T04:24:45.191Z,98607.00
2022-11-15T04:26:38.284Z,98597.00
2022-11-15T04:28:31.796Z,98615.00
2022-11-15T04:30:23.949Z,98610.00
2022-11-15T04:32:16.908Z,98609.00
2022-11-15T04:34:09.968Z,98614.00
2022-11-15T04:36:20.621Z,98608.00
2022-11-15T04:38:15.326Z,98610.00
2022-11-15T04:40:10.390Z,98608.00
2022-11-15T04:42:03.432Z,98608.00
2022-11-15T04:43:56.615Z,98599.00
2022-11-15T04:45:49.835Z,98611.00
2022-11-15T04:47:46.143Z,98614.00
2022-11-15T04:49:39.259Z,98609.00
2022-11-15T04:51:32.435Z,98609.00
2022-11-15T04:53:26.931Z,98612.00
2022-11-15T04:55:20.609Z,98608.00
2022-11-15T04:57:13.820Z,98606.00
2022-11-15T04:59:07.018Z,98606.00
2022-11-15T05:01:00.294Z,98607.00
2022-11-15T05:03:11.268Z,98608.00
2022-11-15T05:05:04.454Z,98612.00
2022-11-15T05:06:57.756Z,98604.00
2022-11-15T05:08:52.391Z,98603.00
2022-11-15T05:10:45.951Z,98609.00
2022-11-15T05:12:39.726Z,98609.00
2022-11-15T05:14:32.852Z,98604.00
2022-11-15T05:16:26.193Z,98609.00
2022-11-15T05:18:23.357Z,98607.00
2022-11-15T05:20:17.116Z,98606.00
2022-11-15T05:22:10.148Z,98603.00
2022-11-15T05:24:05.943Z,98608.00
2022-11-15T05:26:06.422Z,98608.00
2022-11-15T05:28:02.097Z,98608.00
2022-11-15T05:29:55.171Z,98612.00
2022-11-15T05:31:48.384Z,98602.00
2022-11-15T05:33:44.201Z,98610.00
2022-11-15T05:35:47.034Z,98603.00
2022-11-15T05:37:40.173Z,98605.00
2022-11-15T05:39:36.415Z,98610.00
2022-11-15T05:41:36.791Z,98607.00
2022-11-15T05:43:33.651Z,98599.00
2022-11-15T05:45:27.353Z,98607.00
2022-11-15T05:47:25.524Z,98594.00
2022-11-15T05:49:24.148Z,98597.00
2022-11-15T05:51:18.870Z,98602.00
2022-11-15T05:53:15.312Z,98612.00
2022-11-15T05:55:14.995Z,98599.00
2022-11-15T05:57:08.729Z,98598.00
2022-11-15T05:59:02.276Z,98594.00
2022-11-15T06:00:57.002Z,98598.00
2022-11-15T06:02:50.074Z,98603.00
2022-11-15T06:04:43.248Z,98601.00
2022-11-15T06:06:36.390Z,98604.00
2022-11-15T06:08:29.545Z,98607.00
2022-11-15T06:10:23.981Z,98608.00
2022-11-15T06:12:17.096Z,98614.00
2022-11-15T06:14:10.325Z,98602.00
2022-11-15T06:16:03.631Z,98606.00
2022-11-15T06:17:59.496Z,98614.00
2022-11-15T06:19:52.870Z,98610.00
2022-11-15T06:21:46.042Z,98604.00
2022-11-15T06:23:39.277Z,98604.00
2022-11-15T06:25:33.844Z,98611.00
2022-11-15T06:27:26.921Z,98619.00
2022-11-15T06:29:20.105Z,98623.00
2022-11-15T06:31:14.197Z,98621.00
2022-11-15T06:33:09.883Z,98627.00
2022-11-15T06:35:03.031Z,98621.00
2022-11-15T06:36:56.168Z,98629.00
2022-11-15T06:38:49.723Z,98621.00
2022-11-15T06:40:44.363Z,98619.00
2022-11-15T06:42:37.964Z,98619.00
2022-11-15T06:44:31.138Z,98626.00
2022-11-15T06:46:24.344Z,98625.00
2022-11-15T06:48:17.629Z,98633.00
2022-11-15T06:50:11.496Z,98629.00
2022-11-15T06:52:04.651Z,98643.00
2022-11-15T06:53:57.771Z,98646.00
2022-11-15T06:55:55.400Z,98646.00
2022-11-15T06:57:50.185Z,98657.00
2022-11-15T06:59:43.394Z,98644.00
2022-11-15T07:01:37.406Z,98649.00
2022-11-15T07:03:31.259Z,98651.00
2022-11-15T07:05:25.076Z,98652.00
2022-11-15T07:07:18.788Z,98656.00
2022-11-15T07:09:11.965Z,98657.00
2022-11-15T07:11:09.157Z,98652.00
2022-11-15T07:13:02.399Z,98654.00
2022-11-15T07:14:56.046Z,98657.00
2022-11-15T07:16:49.420Z,98650.00
2022-11-15T07:18:43.311Z,98656.00
2022-11-15T07:20:36.470Z,98647.00
2022-11-15T07:22:29.792Z,98661.00
2022-11-15T07:24:22.982Z,98655.00
2022-11-15T07:26:18.073Z,98654.00
2022-11-15T07:28:11.649Z,98663.00
2022-11-15T07:30:06.549Z,98655.00
2022-11-15T07:31:59.961Z,98658.00
2022-11-15T07:33:53.017Z,98661.00
2022-11-15T07:35:50.293Z,98656.00
2022-11-15T07:37:43.497Z,98668.00
2022-11-15T07:39:36.642Z,98673.00
2022-11-15T07:41:31.521Z,98675.00
2022-11-15T07:43:23.748Z,98673.00
2022-11-15T07:45:17.133Z,98676.00
2022-11-15T07:47:10.897Z,98674.00
2022-11-15T07:49:04.051Z,98673.00
2022-11-15T07:50:57.172Z,98674.00
2022-11-15T07:52:55.619Z,98676.00
2022-11-15T07:54:48.693Z,98679.00
2022-11-15T07:56:43.147Z,98674.00
2022-11-15T07:58:36.314Z,98677.00
2022-11-15T08:00:29.521Z,98682.00
2022-11-15T08:02:25.340Z,98681.00
2022-11-15T08:04:22.190Z,98680.00
2022-11-15T08:06:15.217Z,98676.00
2022-11-15T08:08:11.278Z,98678.00
2022-11-15T08:10:06.869Z,98677.00
2022-11-15T08:12:01.326Z,98684.00
2022-11-15T08:13:54.452Z,98680.00
2022-11-15T08:15:47.788Z,98679.00
2022-11-15T08:17:40.923Z,98675.00
2022-11-15T08:19:34.120Z,98674.00
2022-11-15T08:21:27.357Z,98670.00
2022-11-15T08:23:20.499Z,98675.00
2022-11-15T08:25:13.909Z,98675.00
2022-11-15T08:27:15.871Z,98674.00
2022-11-15T08:29:09.563Z,98668.00
2022-11-15T08:31:03.131Z,98673.00
2022-11-15T08:33:00.132Z,98676.00
2022-11-15T08:34:53.196Z,98669.00
2022-11-15T08:36:46.731Z,98663.00
2022-11-15T08:38:39.864Z,98672.00
2022-11-15T08:40:34.046Z,98663.00
2022-11-15T08:42:28.708Z,98664.00
2022-11-15T08:44:21.854Z,98665.00
2022-11-15T08:46:15.966Z,98659.00
2022-11-15T08:48:09.239Z,98666.00
2022-11-15T08:50:02.737Z,98665.00
2022-11-15T08:51:55.877Z,98656.00
2022-11-15T08:53:49.414Z,98670.00
2022-11-15T08:55:43.399Z,98661.00
2022-11-15T08:57:37.922Z,98662.00
2022-11-15T08:59:31.040Z,98656.00
2022-11-15T09:01:24.788Z,98662.00
2022-11-15T09:03:18.006Z,98665.00
2022-11-15T09:05:11.300Z,98664.00
2022-11-15T09:07:04.533Z,98653.00
2022-11-15T09:08:58.432Z,98653.00
2022-11-15T09:10:51.613Z,98660.00
2022-11-15T09:12:49.429Z,98661.00
2022-11-15T09:14:42.654Z,98658.00
2022-11-15T09:16:36.982Z,98656.00
2022-11-15T09:18:30.889Z,98649.00
2022-11-15T09:20:24.170Z,98652.00
2022-11-15T09:22:17.387Z,98648.00
2022-11-15T09:24:10.884Z,98644.00
2022-11-15T09:26:07.225Z,98642.00
2022-11-15T09:28:01.721Z,98645.00
2022-11-15T09:29:54.966Z,98635.00
2022-11-15T09:31:48.159Z,98618.00
2022-11-15T09:33:42.044Z,98629.00
2022-11-15T09:35:35.580Z,98628.00
2022-11-15T09:37:28.805Z,98625.00
2022-11-15T09:39:23.266Z,98630.00
2022-11-15T09:41:43.767Z,98615.00
2022-11-15T09:43:49.312Z,98627.00
2022-11-15T09:45:59.226Z,98625.00
2022-11-15T09:48:36.412Z,98625.00
2022-11-15T09:50:40.981Z,98622.00
2022-11-15T09:52:14.457Z,98627.00
2022-11-15T09:54:37.460Z,98624.00
2022-11-15T09:56:02.136Z,98632.00
2022-11-15T09:57:47.135Z,98638.00
2022-11-15T09:59:46.675Z,98623.00
2022-11-15T10:01:37.573Z,98614.00
2022-11-15T10:03:16.079Z,98627.00
2022-11-15T10:04:49.884Z,98621.00
2022-11-15T10:06:27.465Z,98620.00
2022-11-15T10:08:15.150Z,98621.00
2022-11-15T10:09:54.921Z,98605.00
2022-11-15T10:11:40.016Z,98607.00
2022-11-15T10:13:25.206Z,98612.00
2022-11-15T10:15:06.167Z,98606.00
2022-11-15T10:17:15.432Z,98599.00
2022-11-15T10:19:01.331Z,98595.00
2022-11-15T10:20:46.857Z,98594.00
2022-11-15T10:22:29.098Z,98589.00
2022-11-15T10:24:03.069Z,98583.00
2022-11-15T10:25:38.133Z,98583.00
2022-11-15T10:27:15.204Z,98574.00
2022-11-15T10:28:49.340Z,98571.00
2022-11-15T10:30:25.584Z,98570.00
2022-11-15T10:31:58.708Z,98564.00
2022-11-15T10:33:36.150Z,98566.00
2022-11-15T10:35:25.284Z,98558.00
2022-11-15T10:37:01.169Z,98558.00
2022-11-15T10:38:34.664Z,98565.00
2022-11-15T10:40:19.034Z,98560.00
2022-11-15T10:41:52.870Z,98549.00
2022-11-15T10:43:27.137Z,98552.00
2022-11-15T10:45:00.427Z,98550.00
2022-11-15T10:46:51.944Z,98547.00
2022-11-15T10:48:27.247Z,98536.00
2022-11-15T10:50:05.359Z,98523.00
2022-11-15T10:51:46.973Z,98520.00
2022-11-15T10:53:32.580Z,98518.00
2022-11-15T10:55:28.388Z,98526.00
2022-11-15T10:57:08.729Z,98517.00
2022-11-15T10:58:46.030Z,98522.00
2022-11-15T11:00:34.000Z,98524.00
2022-11-15T11:02:33.409Z,98526.00
2022-11-15T11:04:08.681Z,98521.00
2022-11-15T11:05:43.332Z,98523.00
2022-11-15T11:07:25.557Z,98537.00
2022-11-15T11:09:01.266Z,98530.00
2022-11-15T11:10:51.150Z,98519.00
2022-11-15T11:12:32.500Z,98520.00
2022-11-15T11:14:15.457Z,98525.00
2022-11-15T11:15:57.853Z,98520.00
2022-11-15T11:17:48.878Z,98515.00
2022-11-15T11:19:51.721Z,98516.00
2022-11-15T11:21:40.307Z,98524.00
2022-11-15T11:23:47.782Z,98514.00
2022-11-15T11:25:32.277Z,98509.00
2022-11-15T11:27:27.971Z,98500.00
2022-11-15T11:29:20.010Z,98506.00
2022-11-15T11:31:08.999Z,98505.00
2022-11-15T11:33:01.111Z,98501.00
2022-11-15T11:34:52.258Z,98497.00
2022-11-15T11:36:34.928Z,98494.00
2022-11-15T11:38:26.478Z,98490.00
2022-11-15T11:40:21.745Z,98481.00
2022-11-15T11:42:06.896Z,98480.00
2022-11-15T11:44:07.129Z,98467.00
2022-11-15T11:46:04.206Z,98470.00
2022-11-15T11:47:42.485Z,98478.00
2022-11-15T11:49:26.864Z,98472.00
2022-11-15T11:51:15.445Z,98477.00
2022-11-15T11:53:04.322Z,98462.00
2022-11-15T11:54:48.743Z,98473.00
2022-11-15T11:56:29.324Z,98473.00
2022-11-15T11:58:14.623Z,98457.00
2022-11-15T11:59:57.934Z,98469.00
2022-11-15T12:01:37.963Z,98460.00
2022-11-15T12:03:25.105Z,98458.00
2022-11-15T12:05:12.764Z,98454.00
2022-11-15T12:06:54.219Z,98464.00
2022-11-15T12:08:42.515Z,98460.00
2022-11-15T12:10:26.176Z,98454.00
2022-11-15T12:12:13.129Z,98464.00
2022-11-15T12:13:52.764Z,98455.00
2022-11-15T12:15:30.099Z,98459.00
2022-11-15T12:17:03.736Z,98455.00
2022-11-15T12:18:37.485Z,98460.00
2022-11-15T12:20:20.627Z,98459.00
2022-11-15T12:22:03.881Z,98461.00
2022-11-15T12:23:46.484Z,98465.00
2022-11-15T12:25:24.653Z,98463.00
2022-11-15T12:27:04.693Z,98446.00
2022-11-15T12:28:58.646Z,98453.00
2022-11-15T12:30:47.830Z,98449.00
2022-11-15T12:32:30.355Z,98448.00
2022-11-15T12:34:07.667Z,98456.00
2022-11-15T12:35:46.115Z,98453.00
2022-11-15T12:37:57.228Z,98451.00
2022-11-15T12:40:23.140Z,98443.00
2022-11-15T12:42:41.434Z,98437.00
2022-11-15T12:45:02.601Z,98427.00
2022-11-15T12:47:06.823Z,98430.00
2022-11-15T12:49:03.085Z,98420.00
2022-11-15T12:50:59.022Z,98430.00
2022-11-15T12:52:32.264Z,98421.00
2022-11-15T12:55:03.929Z,98418.00
2022-11-15T12:56:37.097Z,98412.00
2022-11-15T12:58:31.207Z,98407.00
2022-11-15T13:00:47.815Z,98404.00
2022-11-15T13:02:23.741Z,98400.00
2022-11-15T13:04:25.684Z,98392.00
2022-11-15T13:06:11.576Z,98394.00
2022-11-15T13:08:01.917Z,98391.00
2022-11-15T13:10:02.984Z,98400.00
2022-11-15T13:11:53.708Z,98384.00
2022-11-15T13:13:46.877Z,98384.00
2022-11-15T13:15:53.750Z,98378.00
2022-11-15T13:17:41.067Z,98366.00
2022-11-15T13:19:14.414Z,98379.00
2022-11-15T13:20:47.857Z,98370.00
2022-11-15T13:22:40.681Z,98369.00
2022-11-15T13:24:18.441Z,98378.00
2022-11-15T13:26:17.393Z,98382.00
2022-11-15T13:27:53.001Z,98371.00
2022-11-15T13:29:27.100Z,98367.00
2022-11-15T13:31:02.081Z,98356.00
2022-11-15T13:32:35.411Z,98358.00
2022-11-15T13:34:53.397Z,98361.00
2022-11-15T13:36:24.997Z,98353.00
2022-11-15T13:38:07.001Z,98350.00
2022-11-15T13:39:40.179Z,98348.00
2022-11-15T13:41:21.537Z,98349.00
2022-11-15T13:42:55.237Z,98344.00
2022-11-15T13:44:32.035Z,98346.00
2022-11-15T13:46:17.827Z,98344.00
2022-11-15T13:47:57.066Z,98344.00
2022-11-15T13:49:33.584Z,98346.00
2022-11-15T13:51:14.914Z,98342.00
2022-11-15T13:52:49.865Z,98346.00
2022-11-15T13:54:32.404Z,98343.00
2022-11-15T13:56:06.234Z,98349.00
2022-11-15T13:57:45.418Z,98339.00
2022-11-15T13:59:26.428Z,98331.00
2022-11-15T14:01:06.258Z,98334.00
2022-11-15T14:02:39.791Z,98336.00
2022-11-15T14:04:21.465Z,98338.00
2022-11-15T14:06:12.973Z,98345.00
2022-11-15T14:07:55.794Z,98338.00
2022-11-15T14:09:37.763Z,98335.00
2022-11-15T14:11:18.449Z,98326.00
2022-11-15T14:12:53.985Z,98326.00
2022-11-15T14:14:30.780Z,98310.00
2022-11-15T14:16:21.452Z,98319.00
2022-11-15T14:17:54.858Z,98310.00
2022-11-15T14:19:40.409Z,98304.00
2022-11-15T14:21:13.869Z,98306.00
2022-11-15T14:22:54.669Z,98303.00
2022-11-15T14:24:33.769Z,98300.00
2022-11-15T14:26:11.844Z,98299.00
2022-11-15T14:28:07.096Z,98290.00
2022-11-15T14:29:41.621Z,98292.00
2022-11-15T14:31:14.950Z,98292.00
2022-11-15T14:32:52.560Z,98284.00
2022-11-15T14:34:25.800Z,98285.00
2022-11-15T14:36:03.928Z,98274.00
2022-11-15T14:37:37.705Z,98266.00
2022-11-15T14:39:11.073Z,98274.00
2022-11-15T14:40:45.332Z,98259.00
2022-11-15T14:42:20.395Z,98263.00
2022-11-15T14:43:55.034Z,98267.00
2022-11-15T14:45:30.165Z,98258.00
2022-11-15T14:47:03.500Z,98259.00
2022-11-15T14:48:37.592Z,98259.00
2022-11-15T14:50:15.039Z,98255.00
2022-11-15T14:51:48.104Z,98245.00
2022-11-15T14:53:23.195Z,98259.00
2022-11-15T14:54:59.017Z,98244.00
2022-11-15T14:56:32.333Z,98246.00
2022-11-15T14:58:08.808Z,98242.00
2022-11-15T14:59:41.909Z,98246.00
2022-11-15T15:01:21.719Z,98240.00
2022-11-15T15:02:56.100Z,98240.00
2022-11-15T15:04:29.324Z,98236.00
2022-11-15T15:06:02.588Z,98232.00
2022-11-15T15:07:36.034Z,98233.00
2022-11-15T15:09:09.383Z,98227.00
2022-11-15T15:10:46.471Z,98224.00
2022-11-15T15:12:22.834Z,98230.00
2022-11-15T15:13:58.170Z,98226.00
2022-11-15T15:15:36.133Z,98222.00
2022-11-15T15:17:10.969Z,98210.00
2022-11-15T15:18:44.080Z,98219.00
2022-11-15T15:20:18.212Z,98218.00
2022-11-15T15:21:51.369Z,98212.00
2022-11-15T15:23:26.647Z,98203.00
2022-11-15T15:24:59.827Z,98208.00
2022-11-15T15:26:36.052Z,98200.00
2022-11-15T15:28:09.195Z,98202.00
2022-11-15T15:29:42.826Z,98195.00
2022-11-15T15:31:16.689Z,98197.00
2022-11-15T15:32:51.598Z,98200.00
2022-11-15T15:34:25.175Z,98185.00
2022-11-15T15:35:58.366Z,98197.00
2022-11-15T15:37:33.948Z,98188.00
2022-11-15T15:39:07.102Z,98183.00
2022-11-15T15:40:40.364Z,98180.00
2022-11-15T15:42:13.523Z,98181.00
2022-11-15T15:43:47.047Z,98173.00
2022-11-15T15:45:21.589Z,98176.00
2022-11-15T15:46:54.865Z,98181.00
2022-11-15T15:48:30.782Z,98169.00
2022-11-15T15:50:05.810Z,98184.00
2022-11-15T15:51:39.151Z,98174.00
2022-11-15T15:53:14.719Z,98177.00
2022-11-15T15:54:48.161Z,98172.00
2022-11-15T15:56:21.352Z,98171.00
2022-11-15T15:57:55.472Z,98170.00
2022-11-15T15:59:28.603Z,98170.00
2022-11-15T16:01:01.930Z,98162.00
2022-11-15T16:02:40.312Z,98171.00
2022-11-15T16:04:15.902Z,98160.00
2022-11-15T16:05:48.992Z,98167.00
2022-11-15T16:07:25.354Z,98172.00
2022-11-15T16:09:14.290Z,98160.00
2022-11-15T16:10:50.259Z,98163.00
2022-11-15T16:12:23.811Z,98164.00
2022-11-15T16:13:57.296Z,98159.00
2022-11-15T16:15:33.746Z,98159.00
2022-11-15T16:17:07.729Z,98157.00
2022-11-15T16:18:41.092Z,98156.00
2022-11-15T16:20:31.889Z,98149.00
2022-11-15T16:22:05.190Z,98152.00
2022-11-15T16:23:38.270Z,98154.00
2022-11-15T16:25:11.438Z,98148.00
2022-11-15T16:26:44.744Z,98144.00
2022-11-15T16:28:22.977Z,98147.00
2022-11-15T16:29:56.105Z,98143.00
2022-11-15T16:31:29.288Z,98141.00
2022-11-15T16:33:02.820Z,98135.00
2022-11-15T16:34:40.460Z,98145.00
2022-11-15T16:36:29.950Z,98144.00
2022-11-15T16:38:04.338Z,98129.00
2022-11-15T16:39:37.632Z,98139.00
2022-11-15T16:41:09.937Z,98145.00
2022-11-15T16:42:43.080Z,98137.00
2022-11-15T16:44:16.708Z,98136.00
2022-11-15T16:45:52.172Z,98139.00
2022-11-15T16:47:25.330Z,98135.00
2022-11-15T16:48:59.194Z,98142.00
2022-11-15T16:50:39.856Z,98137.00
2022-11-15T16:52:20.266Z,98132.00
2022-11-15T16:53:54.689Z,98142.00
2022-11-15T16:55:30.726Z,98138.00
2022-11-15T16:57:03.989Z,98137.00
2022-11-15T16:58:38.908Z,98127.00
2022-11-15T17:00:13.800Z,98127.00
2022-11-15T17:01:52.794Z,98129.00
2022-11-15T17:03:26.965Z,98135.00
2022-11-15T17:05:01.651Z,98137.00
2022-11-15T17:06:40.136Z,98135.00
2022-11-15T17:08:14.738Z,98132.00
2022-11-15T17:09:47.950Z,98129.00
2022-11-15T17:11:23.821Z,98133.00
2022-11-15T17:12:57.449Z,98126.00
2022-11-15T17:14:30.641Z,98127.00
2022-11-15T17:16:09.236Z,98123.00
2022-11-15T17:17:43.610Z,98125.00
2022-11-15T17:19:19.189Z,98124.00
2022-11-15T17:20:52.515Z,98124.00
2022-11-15T17:22:26.401Z,98130.00
2022-11-15T17:24:02.014Z,98118.00
2022-11-15T17:25:35.143Z,98123.00
2022-11-15T17:27:08.843Z,98116.00
2022-11-15T17:28:42.505Z,98116.00
2022-11-15T17:30:18.598Z,98117.00
2022-11-15T17:31:51.810Z,98117.00
2022-11-15T17:33:25.273Z,98108.00
2022-11-15T17:34:58.475Z,98107.00
2022-11-15T17:36:32.356Z,98103.00
2022-11-15T17:38:05.505Z,98110.00
2022-11-15T17:39:39.923Z,98102.00
2022-11-15T17:41:15.456Z,98103.00
2022-11-15T17:42:48.745Z,98119.00
2022-11-15T17:44:22.005Z,98117.00
2022-11-15T17:45:55.347Z,98120.00
2022-11-15T17:47:28.495Z,98115.00
2022-11-15T17:49:01.864Z,98111.00
2022-11-15T17:50:35.121Z,98116.00
2022-11-15T17:52:09.190Z,98111.00
2022-11-15T17:53:44.717Z,98110.00
2022-11-15T17:55:19.276Z,98104.00
2022-11-15T17:56:52.464Z,98107.00
2022-11-15T17:58:25.698Z,98104.00
2022-11-15T17:59:59.183Z,98103.00
2022-11-15T18:01:35.085Z,98095.00
2022-11-15T18:03:09.314Z,98092.00
2022-11-15T18:04:42.627Z,98088.00
2022-11-15T18:06:17.363Z,98090.00
2022-11-15T18:07:50.470Z,98091.00
2022-11-15T18:09:24.649Z,98085.00
2022-11-15T18:11:12.040Z,98084.00
2022-11-15T18:12:45.454Z,98090.00
2022-11-15T18:14:20.242Z,98085.00
2022-11-15T18:15:54.978Z,98103.00
2022-11-15T18:17:28.402Z,98087.00
2022-11-15T18:19:02.148Z,98088.00
2022-11-15T18:20:36.372Z,98100.00
2022-11-15T18:22:10.174Z,98097.00
2022-11-15T18:23:44.449Z,98097.00
2022-11-15T18:25:17.691Z,98093.00
2022-11-15T18:26:52.405Z,98092.00
2022-11-15T18:28:32.736Z,98091.00
2022-11-15T18:30:06.873Z,98082.00
2022-11-15T18:31:47.429Z,98089.00
2022-11-15T18:33:20.962Z,98086.00
2022-11-15T18:34:54.658Z,98086.00
2022-11-15T18:36:31.300Z,98080.00
2022-11-15T18:38:05.325Z,98085.00
2022-11-15T18:39:38.688Z,98084.00
2022-11-15T18:41:17.710Z,98084.00
2022-11-15T18:42:55.087Z,98085.00
2022-11-15T18:44:30.517Z,98076.00
2022-11-15T18:46:05.374Z,98075.00
2022-11-15T18:47:38.855Z,98071.00
2022-11-15T18:49:14.333Z,98069.00
2022-11-15T18:50:47.537Z,98062.00
2022-11-15T18:52:20.861Z,98070.00
2022-11-15T18:53:55.941Z,98064.00
2022-11-15T18:55:29.258Z,98054.00
2022-11-15T18:57:02.869Z,98066.00
2022-11-15T18:58:40.752Z,98064.00
2022-11-15T19:00:15.934Z,98060.00
2022-11-15T19:01:49.953Z,98058.00
2022-11-15T19:03:24.781Z,98055.00
2022-11-15T19:04:58.084Z,98056.00
2022-11-15T19:06:31.616Z,98054.00
2022-11-15T19:08:05.040Z,98050.00
2022-11-15T19:09:38.829Z,98053.00
2022-11-15T19:11:16.761Z,98052.00
2022-11-15T19:12:50.315Z,98044.00
2022-11-15T19:14:27.850Z,98051.00
2022-11-15T19:16:14.961Z,98041.00
2022-11-15T19:17:48.365Z,98043.00
2022-11-15T19:19:24.288Z,98045.00
2022-11-15T19:21:02.882Z,98039.00
2022-11-15T19:22:35.965Z,98046.00
2022-11-15T19:24:10.277Z,98044.00
2022-11-15T19:25:43.421Z,98046.00
2022-11-15T19:27:16.615Z,98034.00
2022-11-15T19:28:53.422Z,98033.00
2022-11-15T19:30:27.903Z,98039.00
2022-11-15T19:32:11.139Z,98037.00
2022-11-15T19:33:46.203Z,98033.00
2022-11-15T19:35:19.445Z,98030.00
2022-11-15T19:36:53.040Z,98031.00
2022-11-15T19:38:26.270Z,98032.00
2022-11-15T19:39:59.516Z,98030.00
2022-11-15T19:41:33.449Z,98025.00
2022-11-15T19:43:06.891Z,98028.00
2022-11-15T19:44:40.305Z,98031.00
2022-11-15T19:46:16.400Z,98035.00
2022-11-15T19:47:49.839Z,98027.00
2022-11-15T19:49:23.429Z,98025.00
2022-11-15T19:51:01.366Z,98021.00
2022-11-15T19:52:34.620Z,98023.00
2022-11-15T19:54:09.648Z,98028.00
2022-11-15T19:55:43.141Z,98022.00
2022-11-15T19:57:16.434Z,98021.00
2022-11-15T19:58:53.072Z,98029.00
2022-11-15T20:00:26.262Z,98015.00
2022-11-15T20:02:00.932Z,98017.00
2022-11-15T20:03:35.932Z,98014.00
2022-11-15T20:05:12.992Z,98022.00
2022-11-15T20:06:50.377Z,98021.00
2022-11-15T20:08:23.919Z,98030.00
2022-11-15T20:09:57.161Z,98013.00
2022-11-15T20:11:30.729Z,98015.00
2022-11-15T20:13:04.258Z,98018.00
2022-11-15T20:14:37.788Z,98012.00
2022-11-15T20:16:16.580Z,98010.00
2022-11-15T20:17:51.368Z,98008.00
2022-11-15T20:19:24.761Z,98009.00
2022-11-15T20:20:59.054Z,98007.00
2022-11-15T20:22:32.204Z,98006.00
2022-11-15T20:24:07.857Z,98003.00
2022-11-15T20:25:41.204Z,98009.00
2022-11-15T20:27:15.102Z,98009.00
2022-11-15T20:28:49.273Z,98010.00
2022-11-15T20:30:22.436Z,98005.00
2022-11-15T20:31:55.607Z,98003.00
2022-11-15T20:33:30.470Z,97990.00
2022-11-15T20:35:03.594Z,98001.00
2022-11-15T20:36:37.418Z,98000.00
2022-11-15T20:38:10.668Z,98004.00
2022-11-15T20:39:43.868Z,98001.00
2022-11-15T20:41:17.007Z,97996.00
2022-11-15T20:42:54.030Z,97991.00
2022-11-15T20:44:27.248Z,97993.00
2022-11-15T20:46:00.418Z,97995.00
2022-11-15T20:47:33.580Z,97986.00
2022-11-15T20:49:08.193Z,97988.00
2022-11-15T20:50:43.769Z,97985.00